Benjamas Naree — 9V9405 — position and weather

sailwx.info

Track history (hours):
 
Tides and Currents Weather Stations Pressure Air Temp Water Temp Dewpoint Dewpoint Depression Visibility Wind Speed Wind Dir Waves Ship Positions

Benjamas Naree

Last reported at 2014-Dec-19 01:20 UTC. Time now 2014-Dec-19 14:23 UTC.
Position N 39°57' W 075°08'.

Length 181 m; draft 10.2 m.

Type: Cargo ship. MMSI: 566377000.

Date/timePositionNaut miles runAvg speedWind from/ knotsBaromVisibWave heightAir tempDewpointWater temp
2014-Dec-19 01:20N 39°57' W 075°08'144 3.5
2014-Dec-17 08:20N 38°24' W 072°47'8011.7
2014-Dec-17 01:31N 38°22' W 071°05'  
2014-Dec-09 12:27N 36°23' W 029°06'2612.0
2014-Dec-09 10:15N 36°21' W 028°33'1012.1
2014-Dec-09 09:26N 36°20' W 028°20'1112.4
2014-Dec-09 08:32N 36°20' W 028°06'4012.4
2014-Dec-09 05:19N 36°18' W 027°17'1012.3
2014-Dec-09 04:32N 36°17' W 027°05'1612.1
2014-Dec-09 03:12N 36°16' W 026°45'1312.0
2014-Dec-09 02:08N 36°16' W 026°29'712.2
2014-Dec-09 01:31N 36°15' W 026°20'  
Track history (hours):
 
Tides and Currents Weather Stations Pressure Air Temp Water Temp Dewpoint Dewpoint Depression Visibility Wind Speed Wind Dir Waves Ship Positions

Benjamas Naree

Last reported at 2014-Dec-19 01:20 UTC. Time now 2014-Dec-19 14:23 UTC.
Position N 39°57' W 075°08'.

Length 181 m; draft 10.2 m.

Type: Cargo ship. MMSI: 566377000.

Date/timePositionNaut miles runAvg speedWind from/ knotsBaromVisibWave heightAir tempDewpointWater temp
2014-Dec-19 01:20N 39°57' W 075°08'144 3.5
2014-Dec-17 08:20N 38°24' W 072°47'8011.7
2014-Dec-17 01:31N 38°22' W 071°05'  
2014-Dec-09 12:27N 36°23' W 029°06'2612.0
2014-Dec-09 10:15N 36°21' W 028°33'1012.1
2014-Dec-09 09:26N 36°20' W 028°20'1112.4
2014-Dec-09 08:32N 36°20' W 028°06'4012.4
2014-Dec-09 05:19N 36°18' W 027°17'1012.3
2014-Dec-09 04:32N 36°17' W 027°05'1612.1
2014-Dec-09 03:12N 36°16' W 026°45'1312.0
2014-Dec-09 02:08N 36°16' W 026°29'712.2
2014-Dec-09 01:31N 36°15' W 026°20'  

Dump ship's entire track history